Time;durP1;ratioP1;P1;durP2;ratioP2;P2;SDS_P1;SDS_P2;PMS_P1;PMS_P2;Temp;Humidity;BMP_temperature;BMP_pressure;BME280_temperature;BME280_humidity;BME280_pressure;Samples;Min_cycle;Max_cycle;Signal;HPM_P1;HPM_P2
2021/01/15 06:16:19;;;;;;;10.98;5.30;;;0.60;92.40;;;;;;5876584;23;20055;-81
2021/01/15 06:18:59;;;;;;;10.63;4.68;;;0.60;92.20;;;;;;4987732;28;20495;-80
2021/01/15 06:21:32;;;;;;;7.97;4.65;;;0.60;92.50;;;;;;4985695;28;20054;-81
2021/01/15 06:24:08;;;;;;;11.40;5.82;;;0.50;92.60;;;;;;4968761;28;20085;-81
2021/01/15 06:26:38;;;;;;;11.25;5.00;;;0.50;92.60;;;;;;4986892;28;20054;-81
2021/01/15 06:29:08;;;;;;;7.85;4.85;;;0.50;92.50;;;;;;4969017;28;20086;-81
2021/01/15 06:31:52;;;;;;;8.68;5.10;;;0.30;92.50;;;;;;4988003;28;20054;-82
2021/01/15 06:34:20;;;;;;;8.77;5.30;;;0.50;92.50;;;;;;4988581;28;20047;-81
2021/01/15 06:36:53;;;;;;;9.68;5.28;;;0.50;92.60;;;;;;4985015;28;20089;-81
2021/01/15 06:39:22;;;;;;;8.57;4.88;;;0.40;92.40;;;;;;4984009;28;20089;-80
2021/01/15 06:42:01;;;;;;;9.70;5.30;;;0.50;92.60;;;;;;4966279;28;20085;-80
2021/01/15 06:44:29;;;;;;;10.63;5.38;;;0.40;92.50;;;;;;4984524;28;20423;-79
2021/01/15 06:47:02;;;;;;;9.23;4.88;;;0.50;92.50;;;;;;4981809;28;20412;-80
2021/01/15 06:49:34;;;;;;;8.30;5.07;;;0.40;92.60;;;;;;4981033;28;20050;-80
2021/01/15 06:52:13;;;;;;;9.52;5.57;;;0.20;92.70;;;;;;4984108;28;20054;-81
2021/01/15 06:54:46;;;;;;;9.70;5.38;;;0.20;92.60;;;;;;4985480;28;20055;-82
2021/01/15 06:57:15;;;;;;;12.10;5.53;;;0.30;92.90;;;;;;4987037;28;20130;-81
2021/01/15 06:59:51;;;;;;;8.63;5.35;;;0.10;92.70;;;;;;4983178;28;20057;-80
2021/01/15 07:03:15;;;;;;;9.88;5.88;;;0.20;92.80;;;;;;4983396;28;20082;-80
2021/01/15 07:05:47;;;;;;;10.00;5.38;;;0.20;92.70;;;;;;4982281;28;20057;-80
2021/01/15 07:08:14;;;;;;;11.02;5.63;;;0.10;92.60;;;;;;4983477;28;20059;-80
2021/01/15 07:10:46;;;;;;;9.88;5.70;;;0.10;92.90;;;;;;4983093;28;20050;-80
2021/01/15 07:13:25;;;;;;;11.13;6.03;;;0.20;92.60;;;;;;4982150;28;20054;-80
2021/01/15 07:15:55;;;;;;;11.18;6.20;;;0.30;93.10;;;;;;4983599;28;20086;-79
2021/01/15 07:18:34;;;;;;;10.52;5.97;;;0.20;92.80;;;;;;4983484;28;20058;-79
2021/01/15 07:21:08;;;;;;;12.43;6.43;;;0.20;92.80;;;;;;4985009;28;20563;-80
2021/01/15 07:23:55;;;;;;;10.80;5.65;;;0.20;92.60;;;;;;4984579;28;20109;-80
2021/01/15 07:26:25;;;;;;;10.07;5.90;;;0.20;92.30;;;;;;4985415;28;20062;-79
2021/01/15 07:28:58;;;;;;;9.45;5.63;;;0.20;92.30;;;;;;4985440;28;20085;-81
2021/01/15 07:31:27;;;;;;;10.27;6.07;;;0.30;92.20;;;;;;4985504;28;20061;-80
2021/01/15 07:33:59;;;;;;;11.30;6.22;;;0.20;92.30;;;;;;5001775;28;20058;-80
2021/01/15 07:36:37;;;;;;;10.65;6.05;;;0.10;92.40;;;;;;5006448;28;20458;-81
2021/01/15 07:39:08;;;;;;;11.23;6.18;;;0.00;92.50;;;;;;5008292;28;20050;-80
2021/01/15 07:41:43;;;;;;;10.50;6.07;;;0.00;92.70;;;;;;5007006;28;20122;-80
2021/01/15 07:44:42;;;;;;;10.13;6.15;;;0.10;92.80;;;;;;5003511;28;20110;-79
2021/01/15 07:47:12;;;;;;;9.50;5.50;;;0.20;92.50;;;;;;5007404;28;20120;-80
2021/01/15 07:49:47;;;;;;;9.50;5.55;;;0.10;92.40;;;;;;5009500;28;20126;-81
2021/01/15 07:52:16;;;;;;;11.98;5.90;;;0.20;92.40;;;;;;4980517;28;20054;-81
2021/01/15 07:55:01;;;;;;;9.48;5.50;;;0.20;92.40;;;;;;5013685;28;20054;-81
2021/01/15 07:57:30;;;;;;;9.73;5.53;;;0.30;92.40;;;;;;5006315;28;20050;-80
2021/01/15 08:00:27;;;;;;;11.43;6.50;;;0.40;92.20;;;;;;5009758;28;20050;-81
2021/01/15 08:03:01;;;;;;;9.95;6.00;;;0.40;92.10;;;;;;5011744;28;20050;-81
2021/01/15 08:05:32;;;;;;;10.63;6.25;;;0.40;92.00;;;;;;4993651;28;20134;-80
2021/01/15 08:08:07;;;;;;;11.90;6.40;;;0.40;92.00;;;;;;5006715;28;20054;-80
2021/01/15 08:10:44;;;;;;;10.93;6.72;;;0.30;92.10;;;;;;5008047;28;20081;-80
2021/01/15 08:13:26;;;;;;;11.70;6.32;;;0.40;92.10;;;;;;5009483;28;20487;-80
2021/01/15 08:15:54;;;;;;;13.15;7.20;;;0.40;92.00;;;;;;5010423;28;20046;-79
2021/01/15 08:18:22;;;;;;;11.13;6.18;;;0.50;91.70;;;;;;4990670;28;20104;-80
2021/01/15 08:20:53;;;;;;;10.32;6.70;;;0.40;92.10;;;;;;5009150;28;20105;-79
2021/01/15 08:23:31;;;;;;;9.88;6.40;;;0.50;92.00;;;;;;4988809;28;20046;-80
2021/01/15 08:26:29;;;;;;;10.68;6.53;;;0.50;91.70;;;;;;4992951;28;20074;-79
2021/01/15 08:28:56;;;;;;;11.32;6.72;;;0.60;91.70;;;;;;5005775;28;20050;-79
2021/01/15 08:31:23;;;;;;;12.43;6.85;;;0.60;91.60;;;;;;5002279;28;20140;-80
2021/01/15 08:34:08;;;;;;;11.57;6.57;;;0.60;91.30;;;;;;5002224;28;20057;-79
2021/01/15 08:36:38;;;;;;;10.40;6.57;;;0.60;91.30;;;;;;5002460;28;20322;-79
2021/01/15 08:39:08;;;;;;;11.77;6.53;;;0.60;91.40;;;;;;5005237;28;20082;-79
2021/01/15 08:41:36;;;;;;;12.52;6.88;;;0.60;91.30;;;;;;5003700;28;20114;-80
2021/01/15 08:44:04;;;;;;;10.63;6.60;;;0.60;91.20;;;;;;5004626;28;20047;-80
2021/01/15 08:46:34;;;;;;;12.90;6.95;;;0.60;91.20;;;;;;5004809;28;20125;-80
2021/01/15 08:49:08;;;;;;;11.45;6.93;;;0.60;91.20;;;;;;5002371;28;20074;-80
2021/01/15 08:51:38;;;;;;;12.10;7.13;;;0.60;91.10;;;;;;5004680;28;20054;-80
2021/01/15 08:54:09;;;;;;;13.07;7.10;;;0.70;91.30;;;;;;4987382;28;20057;-80
2021/01/15 08:56:39;;;;;;;13.60;7.50;;;0.80;91.20;;;;;;5005454;28;20081;-80
2021/01/15 08:59:08;;;;;;;13.20;7.22;;;0.60;91.00;;;;;;5002171;28;20507;-80
2021/01/15 09:01:37;;;;;;;14.20;7.90;;;0.70;91.30;;;;;;5001293;28;20050;-79
2021/01/15 09:04:06;;;;;;;15.10;7.63;;;0.80;90.80;;;;;;5001648;28;20510;-81
2021/01/15 09:06:35;;;;;;;12.98;7.28;;;0.80;90.90;;;;;;5003293;28;20058;-80
2021/01/15 09:09:06;;;;;;;11.13;6.93;;;0.80;90.80;;;;;;5001828;28;20054;-80
2021/01/15 09:11:36;;;;;;;11.55;7.25;;;0.90;90.90;;;;;;5002425;28;20066;-81
2021/01/15 09:14:07;;;;;;;12.57;7.20;;;0.90;90.80;;;;;;5001581;28;20450;-80
2021/01/15 09:16:35;;;;;;;13.65;7.88;;;0.90;90.60;;;;;;5000893;28;20055;-80
2021/01/15 09:19:08;;;;;;;14.45;7.38;;;0.80;90.80;;;;;;5003641;28;20137;-81
2021/01/15 09:21:48;;;;;;;11.98;7.20;;;1.00;91.00;;;;;;5001774;28;20054;-80
2021/01/15 09:24:15;;;;;;;12.73;7.05;;;1.00;90.50;;;;;;5002658;28;20312;-80
2021/01/15 09:26:42;;;;;;;12.75;7.82;;;0.90;90.50;;;;;;5002525;28;20058;-80
2021/01/15 09:29:10;;;;;;;12.75;7.43;;;1.00;90.60;;;;;;5000632;28;20420;-81
2021/01/15 09:31:39;;;;;;;14.70;7.78;;;1.00;90.50;;;;;;5003103;28;20126;-80
2021/01/15 09:34:10;;;;;;;15.63;7.80;;;1.00;90.50;;;;;;5001973;28;20066;-80
2021/01/15 09:36:43;;;;;;;14.95;7.80;;;0.90;90.70;;;;;;4987432;28;20082;-81
2021/01/15 09:39:12;;;;;;;14.70;8.18;;;0.90;90.70;;;;;;4984506;28;20055;-80
2021/01/15 09:41:48;;;;;;;13.40;7.78;;;1.00;90.60;;;;;;5002046;28;20459;-79
2021/01/15 09:44:17;;;;;;;12.80;7.88;;;1.00;90.50;;;;;;5004644;28;20054;-80
2021/01/15 09:46:44;;;;;;;13.15;7.78;;;1.00;90.60;;;;;;5000231;28;20046;-80
2021/01/15 09:49:11;;;;;;;16.38;8.52;;;1.10;90.70;;;;;;4983997;28;20047;-80
2021/01/15 09:51:38;;;;;;;16.95;9.07;;;1.10;90.70;;;;;;5000099;28;20055;-79
2021/01/15 09:54:07;;;;;;;13.15;7.97;;;1.10;90.80;;;;;;4968980;28;20396;-80
2021/01/15 09:56:40;;;;;;;15.20;8.85;;;1.10;90.70;;;;;;4985848;28;20081;-80
2021/01/15 09:59:08;;;;;;;17.48;9.05;;;1.20;90.50;;;;;;5001919;28;20047;-80
2021/01/15 10:01:35;;;;;;;13.20;8.52;;;1.10;91.00;;;;;;5003997;28;20050;-80
2021/01/15 10:04:03;;;;;;;16.92;8.25;;;1.10;90.80;;;;;;4999842;28;20144;-79
2021/01/15 10:06:32;;;;;;;13.95;8.63;;;1.10;90.70;;;;;;5004019;28;20551;-82
2021/01/15 10:09:00;;;;;;;14.88;8.32;;;1.20;90.60;;;;;;4974115;28;20074;-81
2021/01/15 10:11:33;;;;;;;15.25;8.27;;;1.20;90.60;;;;;;4958182;28;20491;-81
2021/01/15 10:14:03;;;;;;;14.07;8.30;;;1.10;90.80;;;;;;5007551;28;20046;-81
2021/01/15 10:16:32;;;;;;;15.82;8.43;;;1.20;90.80;;;;;;5007200;28;20090;-81
2021/01/15 10:19:01;;;;;;;17.02;8.70;;;1.20;90.90;;;;;;4989977;28;20051;-81
2021/01/15 10:21:30;;;;;;;14.88;7.50;;;1.20;90.90;;;;;;5010012;28;20050;-81
2021/01/15 10:23:58;;;;;;;13.23;8.30;;;1.20;90.80;;;;;;4991455;28;20054;-81
2021/01/15 10:26:28;;;;;;;12.63;8.05;;;1.30;90.80;;;;;;5009439;28;20069;-81
2021/01/15 10:29:02;;;;;;;13.52;8.10;;;1.40;90.90;;;;;;4985128;28;20416;-81
2021/01/15 10:31:33;;;;;;;14.90;8.00;;;1.20;90.80;;;;;;5005122;28;20085;-80
2021/01/15 10:34:02;;;;;;;14.57;8.10;;;1.10;90.90;;;;;;5004763;28;20058;-80
2021/01/15 10:36:30;;;;;;;11.85;7.18;;;1.20;90.50;;;;;;5003433;28;20054;-80
2021/01/15 10:38:57;;;;;;;13.77;8.10;;;1.30;90.50;;;;;;5001377;28;20098;-81
2021/01/15 10:41:35;;;;;;;14.52;8.55;;;1.40;90.30;;;;;;5002950;28;20042;-80
2021/01/15 10:44:05;;;;;;;12.98;8.25;;;1.50;90.30;;;;;;5001461;28;20073;-81
2021/01/15 10:46:36;;;;;;;13.93;8.18;;;1.50;90.30;;;;;;5002013;28;20054;-80
2021/01/15 10:49:06;;;;;;;12.07;7.72;;;1.60;90.00;;;;;;4988828;28;20054;-81
2021/01/15 10:51:34;;;;;;;13.60;7.57;;;1.60;89.50;;;;;;4988705;28;20050;-81
2021/01/15 10:54:01;;;;;;;14.68;7.95;;;1.70;89.70;;;;;;5004116;28;20050;-81
2021/01/15 10:56:35;;;;;;;15.63;8.50;;;1.70;89.70;;;;;;5004613;28;20085;-81
2021/01/15 10:59:05;;;;;;;15.82;7.70;;;1.80;88.90;;;;;;5005356;28;20046;-81
2021/01/15 11:01:36;;;;;;;12.93;8.02;;;2.00;89.00;;;;;;5004322;28;20046;-80
2021/01/15 11:04:03;;;;;;;12.57;7.65;;;2.00;88.40;;;;;;4971656;28;20054;-81
2021/01/15 11:06:30;;;;;;;13.48;7.28;;;2.00;88.70;;;;;;5004072;28;20066;-81
2021/01/15 11:08:58;;;;;;;14.07;8.23;;;2.00;87.10;;;;;;5003601;28;20093;-81
2021/01/15 11:11:24;;;;;;;12.60;7.20;;;2.00;88.00;;;;;;5005315;28;20500;-80
2021/01/15 11:13:51;;;;;;;12.45;7.35;;;2.00;86.60;;;;;;4993165;28;20076;-81
2021/01/15 11:16:19;;;;;;;12.52;7.32;;;2.10;87.20;;;;;;4996267;28;20082;-80
2021/01/15 11:18:45;;;;;;;12.07;7.32;;;2.10;87.30;;;;;;4991911;28;20114;-81
2021/01/15 11:21:12;;;;;;;12.60;7.18;;;2.20;86.50;;;;;;5007333;28;20085;-81
2021/01/15 11:23:39;;;;;;;12.00;7.53;;;2.40;86.50;;;;;;5006981;28;20488;-81
2021/01/15 11:26:09;;;;;;;12.82;7.57;;;2.40;86.50;;;;;;5006219;28;20062;-81
2021/01/15 11:28:40;;;;;;;13.27;7.50;;;2.50;86.50;;;;;;5008278;28;20081;-80
2021/01/15 11:31:07;;;;;;;11.18;6.78;;;2.40;85.40;;;;;;5009099;28;20064;-80
2021/01/15 11:33:40;;;;;;;13.40;8.23;;;2.30;84.80;;;;;;4998389;28;20054;-81
2021/01/15 11:36:16;;;;;;;11.43;7.15;;;2.30;85.40;;;;;;4995096;28;20061;-80
2021/01/15 11:47:34;;;;;;;12.30;7.13;;;2.40;84.60;;;;;;4992553;28;20072;-81
2021/01/15 11:50:04;;;;;;;13.13;7.35;;;2.40;83.70;;;;;;4982040;28;20054;-80
2021/01/15 11:52:30;;;;;;;12.73;7.57;;;2.40;83.90;;;;;;4978176;28;20063;-79
2021/01/15 11:54:57;;;;;;;11.93;7.05;;;2.60;84.50;;;;;;4975461;28;20474;-80
2021/01/15 11:57:24;;;;;;;13.55;7.45;;;2.60;83.50;;;;;;4956801;28;20050;-79
2021/01/15 11:59:51;;;;;;;11.13;6.90;;;2.50;84.20;;;;;;4974815;28;20129;-79
2021/01/15 12:02:19;;;;;;;10.93;6.88;;;2.70;84.60;;;;;;4975428;28;20066;-79
2021/01/15 12:04:47;;;;;;;11.85;7.10;;;2.70;82.70;;;;;;4978752;28;20128;-80
2021/01/15 12:12:25;;;;;;;12.70;6.72;;;3.00;80.40;;;;;;6006503;23;20052;-84
2021/01/15 12:14:53;;;;;;;10.38;5.65;;;3.10;79.40;;;;;;4997582;28;20111;-86
2021/01/15 12:17:19;;;;;;;9.88;6.00;;;3.20;78.90;;;;;;5026525;28;20394;-83
2021/01/15 12:19:46;;;;;;;10.63;6.38;;;3.50;77.50;;;;;;5028039;28;20046;-86
2021/01/15 12:22:13;;;;;;;11.45;6.43;;;3.60;75.40;;;;;;5031292;28;20049;-87
2021/01/15 12:24:39;;;;;;;13.45;6.65;;;3.70;75.70;;;;;;5023029;28;20137;-86
2021/01/15 12:27:07;;;;;;;9.88;6.22;;;3.80;77.10;;;;;;5024003;28;20133;-87
2021/01/15 12:29:36;;;;;;;10.90;6.35;;;3.90;75.00;;;;;;5025498;28;20129;-89
2021/01/15 12:32:02;;;;;;;9.82;5.50;;;3.90;74.80;;;;;;5014612;28;20112;-87
2021/01/15 12:34:29;;;;;;;8.88;5.28;;;4.00;72.90;;;;;;5011569;28;20058;-88
2021/01/15 12:36:56;;;;;;;9.05;5.30;;;4.10;73.10;;;;;;5011586;28;20463;-88
2021/01/15 12:39:22;;;;;;;10.25;5.15;;;4.50;71.70;;;;;;5015049;28;20049;-91
2021/01/15 12:41:49;;;;;;;7.38;4.50;;;4.50;69.70;;;;;;5013602;28;20050;-89
2021/01/15 12:44:16;;;;;;;7.80;4.63;;;4.70;68.10;;;;;;5015197;28;20083;-92
2021/01/15 12:46:44;;;;;;;7.78;4.65;;;4.90;67.00;;;;;;5015424;28;20065;-88
2021/01/15 12:49:10;;;;;;;7.97;4.85;;;4.90;65.90;;;;;;5013594;28;20053;-89
2021/01/15 12:51:37;;;;;;;11.65;5.50;;;5.00;66.30;;;;;;5013549;28;20547;-89
2021/01/15 12:54:04;;;;;;;10.57;5.82;;;5.30;67.20;;;;;;5013551;28;20471;-84
2021/01/15 12:56:35;;;;;;;9.70;5.53;;;5.30;64.00;;;;;;5012251;28;20054;-88
2021/01/15 12:59:02;;;;;;;9.30;5.47;;;5.60;64.00;;;;;;5012505;28;20054;-86
2021/01/15 13:01:37;;;;;;;8.65;5.18;;;5.80;63.80;;;;;;5010827;28;20495;-85
2021/01/15 13:04:05;;;;;;;10.20;5.38;;;6.00;60.40;;;;;;5011735;28;20056;-84
2021/01/15 13:06:36;;;;;;;9.02;5.47;;;6.00;61.10;;;;;;5012292;28;20089;-85
2021/01/15 13:09:04;;;;;;;9.40;5.40;;;6.10;60.30;;;;;;5012549;28;20128;-84
2021/01/15 13:11:31;;;;;;;9.40;5.43;;;6.40;59.40;;;;;;5012521;28;20128;-84
2021/01/15 13:13:58;;;;;;;9.50;5.63;;;6.60;59.90;;;;;;5025824;28;20585;-84
2021/01/15 13:16:26;;;;;;;9.60;6.03;;;6.90;57.90;;;;;;5031822;28;20053;-84
2021/01/15 13:18:53;;;;;;;8.68;5.47;;;7.20;56.40;;;;;;5031668;28;20449;-83
2021/01/15 13:21:21;;;;;;;9.52;5.75;;;7.50;54.80;;;;;;5032008;28;20504;-84
2021/01/15 13:23:48;;;;;;;10.02;5.80;;;7.60;53.80;;;;;;5031893;28;20053;-84
2021/01/15 13:26:14;;;;;;;8.57;5.15;;;7.70;51.90;;;;;;5032289;28;20075;-84
2021/01/15 13:28:42;;;;;;;8.75;5.55;;;7.70;53.40;;;;;;5036261;28;20029;-83
2021/01/15 13:31:09;;;;;;;9.30;5.40;;;7.90;53.10;;;;;;5034899;28;20422;-85
2021/01/15 13:33:36;;;;;;;8.75;5.60;;;8.30;51.90;;;;;;5032000;28;20625;-84
2021/01/15 13:36:05;;;;;;;8.38;5.47;;;8.30;50.90;;;;;;5032029;28;20053;-84
2021/01/15 13:38:33;;;;;;;8.82;5.13;;;8.60;50.50;;;;;;5031772;28;20065;-84
2021/01/15 13:41:00;;;;;;;8.93;5.65;;;8.90;49.20;;;;;;5031135;28;20049;-84
2021/01/15 13:43:26;;;;;;;9.82;5.97;;;9.10;48.10;;;;;;5031362;28;20120;-84
2021/01/15 13:45:53;;;;;;;7.90;5.40;;;9.30;48.50;;;;;;5031585;28;20076;-83
2021/01/15 13:48:21;;;;;;;9.63;5.40;;;9.60;47.50;;;;;;5030778;28;20045;-83
2021/01/15 13:50:50;;;;;;;8.32;5.18;;;10.20;45.70;;;;;;5031177;28;20660;-82
2021/01/15 13:53:21;;;;;;;10.30;5.78;;;10.60;44.70;;;;;;5030941;28;20562;-83
2021/01/15 13:55:49;;;;;;;8.50;5.70;;;11.00;43.30;;;;;;5030859;28;20057;-85
2021/01/15 13:58:16;;;;;;;9.38;5.60;;;11.60;42.20;;;;;;5031189;28;20049;-83
2021/01/15 14:00:43;;;;;;;9.18;5.40;;;12.20;41.50;;;;;;5031276;28;20045;-82
2021/01/15 14:03:10;;;;;;;8.70;5.70;;;12.60;40.70;;;;;;5030753;28;20406;-83
2021/01/15 14:05:38;;;;;;;8.00;5.28;;;12.80;39.50;;;;;;5030698;28;20046;-82
2021/01/15 14:08:06;;;;;;;10.60;6.05;;;13.40;39.00;;;;;;5031032;28;20052;-83
2021/01/15 14:10:33;;;;;;;8.05;5.40;;;13.90;37.90;;;;;;5030858;28;20550;-83
2021/01/15 14:13:03;;;;;;;8.52;5.65;;;14.40;37.30;;;;;;5031325;28;20088;-83
2021/01/15 14:15:31;;;;;;;9.18;5.28;;;15.20;35.40;;;;;;5031451;28;20129;-82
2021/01/15 14:17:57;;;;;;;9.18;6.60;;;15.50;34.60;;;;;;5031774;28;20058;-83
2021/01/15 14:20:24;;;;;;;11.15;7.50;;;15.50;35.00;;;;;;5030804;28;20065;-83
2021/01/15 14:22:50;;;;;;;11.77;8.18;;;15.40;35.70;;;;;;5030878;28;20479;-83
2021/01/15 14:25:19;;;;;;;12.38;8.02;;;14.70;36.40;;;;;;5031145;28;20136;-83
2021/01/15 14:27:46;;;;;;;13.48;8.13;;;14.40;38.00;;;;;;5031480;28;20051;-84
2021/01/15 14:30:15;;;;;;;12.32;7.47;;;14.50;37.00;;;;;;5030312;28;20049;-83
2021/01/15 14:32:45;;;;;;;11.68;7.65;;;14.60;36.80;;;;;;5030303;28;20490;-82
2021/01/15 14:35:13;;;;;;;11.32;7.15;;;14.70;36.90;;;;;;5030464;28;20061;-82
2021/01/15 14:37:44;;;;;;;10.70;7.45;;;15.10;36.70;;;;;;5028256;28;20063;-83
2021/01/15 14:40:12;;;;;;;10.93;7.88;;;14.90;36.30;;;;;;5030176;28;20049;-83
2021/01/15 14:42:39;;;;;;;12.30;7.68;;;15.10;36.50;;;;;;5029102;28;20550;-83
2021/01/15 14:45:07;;;;;;;9.95;6.70;;;14.90;36.40;;;;;;5029652;28;20049;-78
2021/01/15 14:47:36;;;;;;;10.13;7.15;;;14.90;39.30;;;;;;5029654;28;20049;-79
2021/01/15 14:50:06;;;;;;;10.75;6.90;;;15.30;36.30;;;;;;5028922;28;20460;-80
2021/01/15 14:52:33;;;;;;;10.05;7.15;;;15.30;35.90;;;;;;5029365;28;20132;-78
2021/01/15 14:54:59;;;;;;;11.13;6.85;;;15.30;36.00;;;;;;5029511;28;20042;-79
2021/01/15 14:57:26;;;;;;;11.85;7.35;;;15.40;36.00;;;;;;5029489;28;20056;-78
2021/01/15 14:59:52;;;;;;;11.02;7.43;;;15.60;35.60;;;;;;5028124;28;20491;-79
2021/01/15 15:02:19;;;;;;;11.70;7.88;;;15.50;35.50;;;;;;5029094;28;20560;-83
2021/01/15 15:04:46;;;;;;;11.65;8.18;;;15.20;36.50;;;;;;5029576;28;20140;-84
2021/01/15 15:07:13;;;;;;;13.20;8.57;;;15.00;36.60;;;;;;5029655;28;20051;-83
2021/01/15 15:09:40;;;;;;;11.50;8.27;;;15.00;37.00;;;;;;5028510;28;20064;-87
2021/01/15 15:12:07;;;;;;;15.07;8.95;;;14.90;37.10;;;;;;5028984;28;20160;-83
2021/01/15 15:14:34;;;;;;;12.18;8.52;;;14.40;37.90;;;;;;5029370;28;20049;-83
2021/01/15 15:17:00;;;;;;;13.65;8.88;;;13.70;39.20;;;;;;5023342;28;20053;-84
2021/01/15 15:19:27;;;;;;;12.32;8.73;;;13.10;40.30;;;;;;5008820;28;20224;-81
2021/01/15 15:21:54;;;;;;;12.85;8.90;;;12.60;41.30;;;;;;5021461;28;20049;-83
2021/01/15 15:24:21;;;;;;;17.45;9.93;;;11.90;42.70;;;;;;5029137;28;20075;-83
2021/01/15 15:26:48;;;;;;;13.15;9.00;;;10.90;44.60;;;;;;5029437;28;20141;-86
2021/01/15 15:29:15;;;;;;;14.57;9.05;;;9.90;47.00;;;;;;5029416;28;20569;-81
2021/01/15 15:31:42;;;;;;;15.63;8.95;;;9.10;49.60;;;;;;5029057;28;20065;-83
2021/01/15 15:34:09;;;;;;;17.30;9.55;;;8.90;50.70;;;;;;5029037;28;20495;-81
2021/01/15 15:36:37;;;;;;;14.88;9.43;;;8.70;51.10;;;;;;5029495;28;20087;-84
2021/01/15 15:39:06;;;;;;;15.88;9.20;;;8.70;51.90;;;;;;5029327;28;20403;-84
2021/01/15 15:41:33;;;;;;;14.77;9.25;;;8.00;53.20;;;;;;5030006;28;20490;-83
2021/01/15 15:44:07;;;;;;;16.05;9.65;;;7.30;55.30;;;;;;5038753;28;20054;-81
2021/01/15 15:46:37;;;;;;;16.05;9.30;;;6.60;58.00;;;;;;5041653;28;20045;-82
2021/01/15 15:49:10;;;;;;;15.18;8.93;;;6.10;61.00;;;;;;5029712;28;20071;-82
2021/01/15 15:51:39;;;;;;;13.75;9.50;;;5.70;63.70;;;;;;5047478;28;20061;-82
2021/01/15 15:57:37;;;;;;;16.30;9.52;;;5.00;68.00;;;;;;5047039;28;20050;-80
2021/01/15 16:00:21;;;;;;;17.67;9.75;;;4.70;71.00;;;;;;5046446;28;20053;-81
2021/01/15 16:03:02;;;;;;;16.73;9.23;;;4.50;72.10;;;;;;5051725;28;20050;-82
2021/01/15 16:05:34;;;;;;;;;;;4.30;74.20;;;;;;5049524;28;20045;-81
2021/01/15 16:08:02;;;;;;;17.83;9.77;;;4.20;75.00;;;;;;5029264;28;19997;-80
2021/01/15 16:10:46;;;;;;;15.20;8.98;;;4.00;76.50;;;;;;5028008;28;20045;-82
2021/01/15 16:13:15;;;;;;;19.48;9.75;;;3.80;77.70;;;;;;5031304;28;20065;-82
2021/01/15 16:15:44;;;;;;;15.45;9.30;;;3.70;78.80;;;;;;5053858;28;20069;-81
2021/01/15 16:18:22;;;;;;;17.08;10.10;;;3.60;79.10;;;;;;5059480;28;20060;-82
2021/01/15 16:20:50;;;;;;;15.93;9.55;;;3.70;80.00;;;;;;5052785;28;20056;-80
2021/01/15 16:23:22;;;;;;;17.45;9.65;;;3.60;80.70;;;;;;5044725;28;20072;-79
2021/01/15 16:25:51;;;;;;;20.13;10.13;;;3.60;81.30;;;;;;5028376;28;20050;-80
2021/01/15 16:28:27;;;;;;;16.05;10.25;;;3.40;81.80;;;;;;5045639;28;20105;-80
2021/01/15 16:30:56;;;;;;;19.10;10.57;;;3.40;82.20;;;;;;5046543;28;20479;-80
2021/01/15 16:33:23;;;;;;;17.13;10.43;;;3.40;82.60;;;;;;5045600;28;20084;-79
2021/01/15 16:35:52;;;;;;;17.73;10.27;;;3.30;83.40;;;;;;5048849;28;20475;-79
2021/01/15 16:38:26;;;;;;;17.38;9.98;;;3.30;83.60;;;;;;5051477;28;20091;-80
2021/01/15 16:41:09;;;;;;;20.95;10.73;;;3.30;83.70;;;;;;5058697;28;20037;-82
2021/01/15 16:43:43;;;;;;;23.63;12.00;;;3.30;84.30;;;;;;5057959;28;20049;-82
2021/01/15 16:46:18;;;;;;;18.55;10.27;;;3.10;84.40;;;;;;5041420;28;20120;-81
2021/01/15 16:48:50;;;;;;;16.83;10.90;;;3.00;85.10;;;;;;5057995;28;20050;-81
2021/01/15 16:51:25;;;;;;;19.00;10.50;;;3.00;85.50;;;;;;5058092;28;20100;-80
2021/01/15 16:54:53;;;;;;;18.00;10.23;;;2.90;85.70;;;;;;5059556;28;20037;-81
2021/01/15 17:00:35;;;;;;;18.23;10.50;;;3.00;86.80;;;;;;5056475;28;20049;-81
2021/01/15 17:03:10;;;;;;;17.50;9.80;;;3.10;86.70;;;;;;5052632;28;20049;-80
2021/01/15 17:08:49;;;;;;;18.98;9.45;;;2.70;87.90;;;;;;5052180;28;19928;-80
2021/01/15 17:11:17;;;;;;;17.52;10.02;;;2.90;87.70;;;;;;5045611;28;20065;-80
2021/01/15 17:13:54;;;;;;;21.67;10.13;;;2.90;88.20;;;;;;5016315;28;20482;-81
2021/01/15 17:19:37;;;;;;;16.15;9.18;;;2.90;89.20;;;;;;5031397;28;20064;-81
2021/01/15 17:22:06;;;;;;;15.18;9.13;;;2.90;90.20;;;;;;5005379;28;20058;-81
2021/01/15 17:24:34;;;;;;;16.98;8.95;;;2.80;90.50;;;;;;5001219;28;20488;-80
2021/01/15 17:27:02;;;;;;;16.75;9.85;;;2.80;90.30;;;;;;5025655;28;20054;-82
2021/01/15 17:29:37;;;;;;;15.70;9.60;;;2.50;90.40;;;;;;5031753;28;20054;-81
2021/01/15 17:35:09;;;;;;;16.77;9.40;;;2.70;90.00;;;;;;5029173;28;19940;-82
2021/01/15 17:40:13;;;;;;;18.13;9.60;;;2.70;90.10;;;;;;5991477;23;20057;-76
2021/01/15 17:42:43;;;;;;;20.75;9.65;;;2.70;90.70;;;;;;4980777;28;20499;-76
2021/01/15 17:45:13;;;;;;;16.83;9.07;;;2.60;90.90;;;;;;4997045;28;20053;-77
2021/01/15 17:47:45;;;;;;;17.92;9.40;;;2.60;91.30;;;;;;4999641;28;20058;-75
2021/01/15 18:20:14;;;;;;;16.60;9.70;;;2.30;91.30;;;;;;4992906;26;20101;-76
2021/01/15 19:15:36;;;;;;;19.55;11.27;;;2.10;93.90;;;;;;4903116;26;20061;-83
2021/01/15 19:18:05;;;;;;;20.15;11.07;;;2.20;94.30;;;;;;5017519;28;20053;-81
2021/01/15 19:20:32;;;;;;;20.42;10.57;;;2.00;94.00;;;;;;5036019;28;20061;-82
2021/01/15 19:23:01;;;;;;;19.30;11.88;;;2.20;94.00;;;;;;5036888;28;20057;-82
2021/01/15 19:25:28;;;;;;;19.92;10.88;;;2.20;94.20;;;;;;5008261;28;20054;-78
2021/01/15 19:27:54;;;;;;;19.58;11.25;;;2.10;94.20;;;;;;5003302;28;20496;-77
2021/01/15 19:30:24;;;;;;;18.13;10.50;;;2.10;94.30;;;;;;5016494;28;20098;-83
2021/01/15 19:32:52;;;;;;;20.67;10.30;;;2.20;94.30;;;;;;5000814;28;20037;-82
2021/01/15 21:15:25;;;;;;;17.70;10.37;;;2.30;95.90;;;;;;5745858;23;20682;-82
2021/01/15 21:17:58;;;;;;;16.48;9.45;;;2.20;96.20;;;;;;5038775;28;20069;-83
2021/01/15 21:20:31;;;;;;;17.92;10.30;;;2.00;96.40;;;;;;5059527;28;20033;-82
2021/01/15 21:23:20;;;;;;;18.27;10.02;;;1.90;96.40;;;;;;5060213;28;20049;-83
2021/01/15 21:28:32;;;;;;;15.82;9.70;;;2.00;96.40;;;;;;5030867;28;20057;-81
2021/01/15 21:31:00;;;;;;;16.77;9.93;;;1.90;96.60;;;;;;5058191;28;20056;-81
2021/01/15 21:33:27;;;;;;;17.80;9.65;;;2.00;96.50;;;;;;5023543;28;20030;-82
2021/01/15 21:35:54;;;;;;;16.35;9.30;;;2.00;96.50;;;;;;5040258;28;20034;-82
2021/01/15 21:38:23;;;;;;;17.20;9.73;;;2.00;96.60;;;;;;5059763;28;20036;-82
2021/01/15 21:40:59;;;;;;;16.63;9.95;;;2.20;96.80;;;;;;5041953;28;20061;-82
2021/01/15 21:43:51;;;;;;;16.92;10.18;;;1.90;96.50;;;;;;5043662;28;20056;-82
2021/01/15 21:46:21;;;;;;;15.43;9.35;;;2.10;96.70;;;;;;5039469;28;20057;-80
2021/01/15 21:48:56;;;;;;;16.90;9.50;;;2.20;96.30;;;;;;5059723;28;20072;-82
2021/01/15 21:51:26;;;;;;;15.40;8.75;;;2.00;96.20;;;;;;5059879;28;20093;-81
2021/01/15 21:53:55;;;;;;;18.48;9.20;;;2.10;96.00;;;;;;5042026;28;20036;-82
2021/01/15 21:56:24;;;;;;;18.30;9.52;;;2.00;96.30;;;;;;5041363;28;20036;-82
2021/01/15 21:58:51;;;;;;;16.75;10.18;;;2.00;96.30;;;;;;5059452;28;20068;-82
2021/01/15 22:01:35;;;;;;;17.45;9.60;;;2.00;96.50;;;;;;5059452;28;20036;-82
2021/01/15 22:04:03;;;;;;;17.50;10.13;;;1.80;96.70;;;;;;5057054;28;20050;-81
2021/01/15 22:06:30;;;;;;;18.80;10.85;;;1.70;96.80;;;;;;5058796;28;20033;-82
2021/01/15 22:08:59;;;;;;;18.55;10.85;;;1.70;97.00;;;;;;5057999;28;20033;-82
2021/01/15 22:11:27;;;;;;;17.35;9.75;;;1.70;97.20;;;;;;5057123;28;20049;-82
2021/01/15 22:13:56;;;;;;;18.30;10.45;;;1.70;97.10;;;;;;5057937;28;20049;-82
2021/01/15 22:23:08;;;;;;;17.23;10.00;;;1.60;96.50;;;;;;6149911;23;21513;31
2021/01/15 22:25:36;;;;;;;18.20;9.98;;;1.70;97.20;;;;;;4963325;28;20294;-82
2021/01/15 22:28:06;;;;;;;17.98;11.10;;;1.90;97.50;;;;;;4962584;28;20042;-80
2021/01/15 22:30:33;;;;;;;17.08;9.88;;;1.60;97.60;;;;;;4962813;28;20049;-82
2021/01/15 22:33:01;;;;;;;20.80;10.50;;;1.60;97.70;;;;;;4963209;28;20055;-82
2021/01/15 22:35:29;;;;;;;18.65;11.27;;;1.70;97.90;;;;;;4978880;28;20055;-82
2021/01/15 22:37:56;;;;;;;21.02;11.48;;;1.70;98.10;;;;;;4977511;29;20043;-81
2021/01/15 22:40:26;;;;;;;18.65;10.85;;;1.50;98.30;;;;;;4976912;29;20066;-82
2021/01/15 22:42:58;;;;;;;23.42;13.30;;;1.50;98.50;;;;;;4979604;28;20050;-82
2021/01/15 22:45:26;;;;;;;24.45;13.18;;;1.40;98.40;;;;;;4978704;29;20070;-81
2021/01/15 22:47:57;;;;;;;21.45;11.75;;;1.50;98.50;;;;;;4978638;28;20474;-82
2021/01/15 22:50:28;;;;;;;24.42;13.77;;;1.30;98.70;;;;;;4978371;28;20055;-82
2021/01/15 22:53:00;;;;;;;23.15;13.75;;;1.20;98.40;;;;;;4980657;28;20049;-82
2021/01/15 22:55:31;;;;;;;25.60;14.00;;;1.40;98.70;;;;;;4980089;28;20047;-82
2021/01/15 22:58:03;;;;;;;25.13;14.13;;;1.20;98.60;;;;;;4963168;29;20051;-81
2021/01/15 23:00:32;;;;;;;26.17;14.20;;;1.20;98.50;;;;;;4978484;28;20048;-82
2021/01/15 23:03:03;;;;;;;25.70;14.77;;;1.40;98.60;;;;;;4961305;29;20074;-82